Time;durP1;ratioP1;P1;durP2;ratioP2;P2;SDS_P1;SDS_P2;PMS_P1;PMS_P2;Temp;Humidity;BMP_temperature;BMP_pressure;BME280_temperature;BME280_humidity;BME280_pressure;Samples;Min_cycle;Max_cycle;Signal;HPM_P1;HPM_P2
2023/06/23 00:00:47;;;;;;;16.58;9.50;;;;;;;17.43;100.00;101980.16;4994267;28;20436;-77
2023/06/23 00:03:13;;;;;;;16.35;10.65;;;;;;;17.40;100.00;101980.56;4993967;28;20026;-76
2023/06/23 00:05:38;;;;;;;19.27;11.32;;;;;;;17.37;100.00;101995.41;4995484;28;20177;-76
2023/06/23 00:08:05;;;;;;;19.17;12.75;;;;;;;17.35;100.00;102005.66;5014289;28;20022;-77
2023/06/23 00:10:31;;;;;;;27.00;15.35;;;;;;;17.36;100.00;102006.53;4995968;28;20073;-77
2023/06/23 00:12:57;;;;;;;23.92;15.55;;;;;;;17.32;100.00;102006.06;5013589;28;20054;-77
2023/06/23 00:15:22;;;;;;;26.08;17.33;;;;;;;17.30;100.00;102003.56;5013372;28;20646;-77
2023/06/23 00:17:50;;;;;;;28.83;19.15;;;;;;;17.31;100.00;102013.38;5013610;28;20036;-76
2023/06/23 00:20:15;;;;;;;28.48;20.73;;;;;;;17.29;100.00;102011.91;5013448;28;20423;-77
2023/06/23 00:22:43;;;;;;;33.42;22.38;;;;;;;17.29;100.00;102017.34;4995292;28;20026;-77
2023/06/23 00:25:09;;;;;;;29.77;22.48;;;;;;;17.26;100.00;102023.19;5013139;28;20018;-77
2023/06/23 00:27:37;;;;;;;32.30;24.05;;;;;;;17.24;100.00;102019.81;5013229;28;20030;-77
2023/06/23 00:30:02;;;;;;;36.88;23.23;;;;;;;17.25;100.00;102016.06;5013190;28;20084;-77
2023/06/23 00:32:28;;;;;;;41.40;26.83;;;;;;;17.24;100.00;102008.94;5012717;28;20392;-77
2023/06/23 00:34:53;;;;;;;40.47;27.38;;;;;;;17.23;100.00;102027.13;5013179;28;20032;-77
2023/06/23 00:37:19;;;;;;;48.42;28.85;;;;;;;17.23;100.00;102032.56;5012359;28;20539;-77
2023/06/23 00:39:44;;;;;;;43.35;29.25;;;;;;;17.23;100.00;102040.75;5013263;28;20057;-77
2023/06/23 00:42:10;;;;;;;50.05;30.40;;;;;;;17.22;100.00;102033.63;5012962;28;20026;-77
2023/06/23 00:44:37;;;;;;;42.35;28.35;;;;;;;17.20;100.00;102032.97;5012510;28;20033;-77
2023/06/23 00:47:03;;;;;;;48.55;28.73;;;;;;;17.20;100.00;102040.31;5011643;28;20026;-76
2023/06/23 00:49:29;;;;;;;50.75;28.63;;;;;;;17.20;100.00;102040.31;5012256;28;20040;-76
2023/06/23 00:51:55;;;;;;;46.78;28.92;;;;;;;17.19;100.00;102044.88;5011510;28;20038;-77
2023/06/23 00:54:23;;;;;;;46.85;29.33;;;;;;;17.14;100.00;102041.94;5012283;28;20034;-76
2023/06/23 00:56:49;;;;;;;51.78;30.80;;;;;;;17.11;100.00;102042.31;5012428;28;20041;-77
2023/06/23 00:59:15;;;;;;;45.92;29.90;;;;;;;17.09;100.00;102036.25;5013335;28;20029;-77
2023/06/23 01:01:40;;;;;;;46.47;28.02;;;;;;;17.07;100.00;102041.88;5012501;28;20061;-77
2023/06/23 01:04:08;;;;;;;46.70;28.75;;;;;;;17.07;100.00;102052.75;4995683;28;20026;-76
2023/06/23 01:07:05;;;;;;;47.40;27.25;;;;;;;17.06;100.00;102061.09;4996320;28;20022;-75
2023/06/23 01:09:44;;;;;;;43.67;27.92;;;;;;;17.05;100.00;102059.41;4967311;28;20053;-77
2023/06/23 01:12:28;;;;;;;52.90;29.73;;;;;;;17.04;100.00;102055.03;4994647;28;20041;-77
2023/06/23 01:15:04;;;;;;;49.72;30.42;;;;;;;17.06;100.00;102051.06;4992883;28;20026;-77
2023/06/23 01:17:46;;;;;;;48.67;30.20;;;;;;;17.05;100.00;102048.53;5001438;28;20036;-76
2023/06/23 01:20:21;;;;;;;47.63;30.73;;;;;;;17.03;100.00;102053.31;4995137;28;20045;-76
2023/06/23 01:22:58;;;;;;;46.63;29.67;;;;;;;17.00;100.00;102057.28;5015884;28;20041;-76
2023/06/23 01:25:47;;;;;;;48.95;29.65;;;;;;;17.02;100.00;102065.25;5031639;28;20033;-77
2023/06/23 01:28:47;;;;;;;52.20;31.17;;;;;;;17.01;100.00;102078.00;5031702;28;20112;-77
2023/06/23 01:31:17;;;;;;;48.45;29.67;;;;;;;17.02;100.00;102076.13;4992767;28;20105;-77
2023/06/23 01:33:48;;;;;;;53.40;32.05;;;;;;;17.02;100.00;102076.13;4975095;28;20026;-76
2023/06/23 01:36:20;;;;;;;47.55;30.08;;;;;;;17.01;100.00;102078.00;4980845;28;20080;-77
2023/06/23 01:38:48;;;;;;;47.75;29.92;;;;;;;17.03;100.00;102088.69;4994089;28;20468;-77
2023/06/23 01:41:17;;;;;;;48.80;30.80;;;;;;;17.04;100.00;102084.94;4997172;28;20037;-77
2023/06/23 01:43:46;;;;;;;48.40;30.40;;;;;;;17.02;100.00;102090.56;4996201;28;20128;-76
2023/06/23 01:46:16;;;;;;;40.58;28.77;;;;;;;17.01;100.00;102097.06;4996393;28;20022;-76
2023/06/23 01:48:46;;;;;;;47.45;27.77;;;;;;;17.00;100.00;102094.50;4974329;28;20045;-77
2023/06/23 01:51:11;;;;;;;47.08;27.98;;;;;;;17.00;100.00;102095.34;4991541;28;20029;-77
2023/06/23 01:53:37;;;;;;;36.55;23.40;;;;;;;17.00;100.00;102105.38;4995196;28;20036;-77
2023/06/23 01:56:04;;;;;;;38.65;23.77;;;;;;;16.99;100.00;102093.69;4988441;28;20110;-77
2023/06/23 01:58:33;;;;;;;31.00;21.88;;;;;;;17.00;100.00;102103.50;5025801;28;20095;-77
2023/06/23 02:00:59;;;;;;;38.05;23.80;;;;;;;16.99;100.00;102109.16;5004305;28;20033;-76
2023/06/23 02:03:26;;;;;;;35.03;23.35;;;;;;;16.96;100.00;102106.84;4993842;28;20029;-77
2023/06/23 02:05:54;;;;;;;31.83;21.83;;;;;;;16.93;100.00;102110.78;4993127;28;20113;-77
2023/06/23 02:08:20;;;;;;;30.45;19.60;;;;;;;16.91;100.00;102112.00;4992726;28;20038;-77
2023/06/23 02:10:46;;;;;;;25.77;17.20;;;;;;;16.93;100.00;102109.91;4993165;28;20030;-78
2023/06/23 02:13:13;;;;;;;24.75;16.63;;;;;;;16.89;100.00;102109.47;5011687;28;20034;-77
2023/06/23 02:15:39;;;;;;;20.83;15.88;;;;;;;16.87;100.00;102115.09;4990347;28;20021;-77
2023/06/23 02:18:05;;;;;;;20.95;16.27;;;;;;;16.86;100.00;102113.41;4993965;28;20076;-77
2023/06/23 02:20:30;;;;;;;22.88;15.65;;;;;;;16.88;100.00;102118.66;4992908;28;20203;-77
2023/06/23 02:22:56;;;;;;;24.40;16.13;;;;;;;16.86;100.00;102118.84;4992143;28;20026;-77
2023/06/23 02:25:22;;;;;;;23.08;14.77;;;;;;;16.84;100.00;102120.91;4994123;28;20088;-77
2023/06/23 02:27:48;;;;;;;24.20;15.45;;;;;;;16.83;100.00;102138.28;4993120;28;20521;-77
2023/06/23 02:30:15;;;;;;;22.10;14.88;;;;;;;16.81;100.00;102136.78;4993956;28;20060;-77
2023/06/23 02:32:40;;;;;;;21.60;14.95;;;;;;;16.80;100.00;102143.25;4989897;28;20109;-77
2023/06/23 02:35:08;;;;;;;23.77;16.27;;;;;;;16.79;100.00;102139.69;4992062;28;20101;-77
2023/06/23 02:37:34;;;;;;;26.35;14.93;;;;;;;16.76;100.00;102145.47;5008816;28;20124;-77
2023/06/23 02:40:12;;;;;;;21.95;15.27;;;;;;;16.73;100.00;102145.03;5011505;28;20400;-76
2023/06/23 02:42:41;;;;;;;20.33;15.10;;;;;;;16.67;100.00;102144.75;5009855;28;20034;-76
2023/06/23 02:45:18;;;;;;;24.58;15.57;;;;;;;16.65;100.00;102145.97;4992955;28;20026;-77
2023/06/23 02:47:44;;;;;;;28.17;16.75;;;;;;;16.63;100.00;102148.03;4993514;28;20030;-75
2023/06/23 02:50:14;;;;;;;24.17;15.27;;;;;;;16.61;100.00;102145.53;4992628;28;20034;-76
2023/06/23 02:52:44;;;;;;;27.02;15.93;;;;;;;16.63;100.00;102142.59;4993198;28;20049;-76
2023/06/23 02:55:11;;;;;;;24.45;15.32;;;;;;;16.60;100.00;102151.13;4992539;28;20041;-77
2023/06/23 02:57:38;;;;;;;29.35;16.33;;;;;;;16.57;100.00;102151.50;4992405;28;20404;-77
2023/06/23 03:00:11;;;;;;;25.30;16.08;;;;;;;16.54;100.00;102152.75;5011855;28;20077;-77
2023/06/23 03:02:37;;;;;;;23.20;15.65;;;;;;;16.54;100.00;102160.88;5015305;28;20030;-77
2023/06/23 03:05:03;;;;;;;22.63;15.32;;;;;;;16.54;100.00;102149.19;5014583;28;20403;-77
2023/06/23 03:07:29;;;;;;;25.42;16.38;;;;;;;16.54;100.00;102154.63;5014382;28;20045;-77
2023/06/23 03:09:55;;;;;;;26.92;15.95;;;;;;;16.53;100.00;102150.19;5014553;28;20418;-77
2023/06/23 03:12:21;;;;;;;27.23;16.83;;;;;;;16.53;100.00;102153.75;4996610;28;20022;-77
2023/06/23 03:14:47;;;;;;;30.48;18.38;;;;;;;16.54;100.00;102149.19;5014943;28;20041;-77
2023/06/23 03:17:14;;;;;;;24.60;16.95;;;;;;;16.54;100.00;102155.44;4997310;28;20467;-76
2023/06/23 03:19:43;;;;;;;26.08;18.88;;;;;;;16.54;100.00;102160.06;5015447;28;20079;-76
2023/06/23 03:22:24;;;;;;;29.63;17.70;;;;;;;16.52;100.00;102165.66;4997187;28;20022;-76
2023/06/23 03:24:52;;;;;;;25.48;17.83;;;;;;;16.52;100.00;102175.69;4997383;28;20052;-76
2023/06/23 03:27:18;;;;;;;29.85;19.45;;;;;;;16.54;100.00;102170.94;5002417;28;20405;-77
2023/06/23 03:29:48;;;;;;;29.17;17.83;;;;;;;16.55;100.00;102178.88;5015805;28;20029;-76
2023/06/23 03:32:18;;;;;;;31.55;18.20;;;;;;;16.57;100.00;102173.25;5016986;28;20087;-76
2023/06/23 03:34:52;;;;;;;27.00;17.17;;;;;;;16.58;100.00;102177.66;5016971;28;20029;-77
2023/06/23 03:37:20;;;;;;;28.38;17.88;;;;;;;16.58;100.00;102183.09;5003529;28;20343;-77
2023/06/23 03:39:49;;;;;;;33.25;19.45;;;;;;;16.57;100.00;102192.28;4980478;28;20026;-77
2023/06/23 03:42:14;;;;;;;30.83;19.25;;;;;;;16.63;100.00;102196.94;5013072;28;20026;-77
2023/06/23 03:44:44;;;;;;;36.53;21.20;;;;;;;16.65;100.00;102200.34;4994914;28;20411;-77
2023/06/23 03:47:13;;;;;;;34.60;20.02;;;;;;;16.71;100.00;102206.88;4996120;28;20037;-77
2023/06/23 03:49:42;;;;;;;29.33;19.13;;;;;;;16.76;100.00;102213.44;4996959;28;20681;-77
2023/06/23 03:52:08;;;;;;;38.05;24.50;;;;;;;16.81;100.00;102221.91;4996404;28;20026;-76
2023/06/23 03:54:34;;;;;;;45.00;24.70;;;;;;;16.88;100.00;102236.44;4980279;28;20026;-77
2023/06/23 03:57:01;;;;;;;43.13;27.52;;;;;;;16.91;100.00;102243.38;5013962;28;20049;-77
2023/06/23 03:59:27;;;;;;;42.42;28.23;;;;;;;16.94;100.00;102255.75;4996933;28;20456;-77
2023/06/23 04:01:53;;;;;;;48.03;31.08;;;;;;;16.96;100.00;102262.69;4996134;28;20061;-79
2023/06/23 04:04:21;;;;;;;48.80;31.13;;;;;;;16.99;100.00;102264.19;5016001;28;20034;-77
2023/06/23 04:06:47;;;;;;;47.00;29.65;;;;;;;17.03;100.00;102269.03;5001229;28;20041;-78
2023/06/23 04:09:14;;;;;;;48.25;31.83;;;;;;;17.05;100.00;102272.41;5002841;28;20065;-77
2023/06/23 04:11:41;;;;;;;45.13;26.67;;;;;;;17.06;100.00;102265.09;5003858;28;20030;-77
2023/06/23 04:14:08;;;;;;;41.45;25.30;;;;;;;17.05;100.00;102266.97;5020190;28;20133;-77
2023/06/23 04:16:35;;;;;;;44.00;27.90;;;;;;;17.04;100.00;102259.84;5016267;28;20030;-77
2023/06/23 04:19:01;;;;;;;45.47;27.10;;;;;;;17.13;100.00;102262.47;4998596;28;20473;-76
2023/06/23 04:21:27;;;;;;;49.25;26.60;;;;;;;17.14;100.00;102254.13;4981582;28;20318;-77
2023/06/23 04:23:53;;;;;;;45.25;27.38;;;;;;;17.17;100.00;102250.16;5013958;28;20029;-78
2023/06/23 04:26:19;;;;;;;43.33;26.52;;;;;;;17.23;100.00;102250.25;4996205;28;20034;-76
2023/06/23 04:28:45;;;;;;;39.22;25.13;;;;;;;17.24;100.00;102251.91;5010598;28;20068;-77
2023/06/23 04:31:12;;;;;;;53.95;29.55;;;;;;;17.27;100.00;102254.28;4996918;28;20041;-77
2023/06/23 04:33:38;;;;;;;46.60;28.00;;;;;;;17.31;100.00;102250.13;5004326;28;20034;-77
2023/06/23 04:36:13;;;;;;;44.80;27.48;;;;;;;17.43;100.00;102252.31;5015453;28;20643;-76
2023/06/23 04:38:50;;;;;;;50.92;26.13;;;;;;;17.48;100.00;102255.31;5011013;28;20021;-77
2023/06/23 04:41:18;;;;;;;45.58;26.15;;;;;;;17.52;100.00;102249.28;4995637;28;20018;-77
2023/06/23 04:43:46;;;;;;;42.50;23.85;;;;;;;17.54;100.00;102243.66;4995994;28;20113;-77
2023/06/23 04:46:18;;;;;;;42.75;24.13;;;;;;;17.53;100.00;102248.25;4993121;28;20167;-77
2023/06/23 04:48:50;;;;;;;31.92;21.25;;;;;;;17.58;100.00;102244.94;5013166;28;20493;-77
2023/06/23 04:51:17;;;;;;;28.77;19.17;;;;;;;17.62;100.00;102239.97;4993702;28;20566;-77
2023/06/23 04:53:56;;;;;;;29.20;19.45;;;;;;;17.62;100.00;102224.47;4995249;28;20022;-76
2023/06/23 04:56:24;;;;;;;31.25;18.20;;;;;;;17.64;100.00;102222.41;4991242;28;20184;-77
2023/06/23 04:58:53;;;;;;;25.95;18.08;;;;;;;17.64;100.00;102222.41;4994996;28;20022;-77
2023/06/23 05:01:19;;;;;;;29.23;20.70;;;;;;;17.65;100.00;102223.25;5011743;28;20231;-77
2023/06/23 05:03:45;;;;;;;28.52;19.85;;;;;;;17.69;100.00;102236.28;4997234;28;20022;-76
2023/06/23 05:06:11;;;;;;;28.90;18.25;;;;;;;17.83;100.00;102236.44;4997056;28;20345;-76
2023/06/23 05:08:38;;;;;;;29.73;17.75;;;;;;;17.90;100.00;102237.31;4994779;28;20056;-77
2023/06/23 05:11:05;;;;;;;31.92;19.23;;;;;;;18.06;100.00;102241.63;4994445;28;20030;-77
2023/06/23 05:13:32;;;;;;;28.02;18.45;;;;;;;18.08;100.00;102245.84;5013193;28;20481;-77
2023/06/23 05:15:58;;;;;;;21.77;16.58;;;;;;;18.18;100.00;102243.63;4995733;28;20033;-77
2023/06/23 05:18:24;;;;;;;23.50;14.55;;;;;;;18.15;100.00;102245.91;4995696;28;20484;-77
2023/06/23 05:20:51;;;;;;;18.00;13.73;;;;;;;18.01;100.00;102239.53;4995398;28;20382;-77
2023/06/23 05:23:17;;;;;;;21.07;12.93;;;;;;;18.00;100.00;102232.38;4994311;28;20030;-77
2023/06/23 05:25:45;;;;;;;17.88;12.20;;;;;;;17.97;100.00;102238.22;4995755;28;20084;-76
2023/06/23 05:28:11;;;;;;;18.85;12.07;;;;;;;18.05;100.00;102240.78;5006984;28;20021;-76
2023/06/23 05:30:37;;;;;;;15.40;11.93;;;;;;;18.14;100.00;102250.53;5003455;28;20556;-77
2023/06/23 05:33:07;;;;;;;16.80;12.63;;;;;;;18.25;100.00;102248.31;4997181;28;20437;-77
2023/06/23 05:35:33;;;;;;;18.58;11.50;;;;;;;18.39;100.00;102241.88;4980777;28;20448;-77
2023/06/23 05:38:00;;;;;;;14.23;10.60;;;;;;;18.47;100.00;102236.28;4997601;28;20490;-78
2023/06/23 05:40:25;;;;;;;19.23;11.50;;;;;;;18.48;100.00;102229.75;4997415;28;20033;-77
2023/06/23 05:42:51;;;;;;;14.88;9.10;;;;;;;18.50;100.00;102229.56;5013642;28;20351;-77
2023/06/23 05:45:17;;;;;;;13.93;8.25;;;;;;;18.49;100.00;102234.19;5017391;28;20032;-77
2023/06/23 05:47:53;;;;;;;9.55;7.38;;;;;;;18.43;100.00;102241.28;5013721;28;20026;-76
2023/06/23 05:50:24;;;;;;;11.15;7.78;;;;;;;18.43;100.00;102245.88;5012582;28;20171;-76
2023/06/23 05:52:56;;;;;;;10.45;8.45;;;;;;;18.47;100.00;102243.63;4995854;28;20025;-77
2023/06/23 05:55:23;;;;;;;12.32;8.18;;;;;;;18.49;100.00;102241.53;4988942;28;20169;-77
2023/06/23 05:57:49;;;;;;;15.00;8.20;;;;;;;18.61;100.00;102245.34;4984863;28;20037;-78
2023/06/23 06:00:17;;;;;;;14.07;8.87;;;;;;;18.63;100.00;102255.03;4990637;28;20022;-78
2023/06/23 06:02:43;;;;;;;;;;;;;;;18.67;100.00;102243.72;4987807;28;20425;-77
2023/06/23 06:05:11;;;;;;;10.75;8.00;;;;;;;18.75;100.00;102246.31;4991607;28;20221;-78
2023/06/23 06:07:37;;;;;;;15.07;8.25;;;;;;;18.83;100.00;102244.25;5009290;28;20404;-77
2023/06/23 06:10:04;;;;;;;10.90;8.65;;;;;;;18.94;100.00;102244.72;4987336;28;20134;-77
2023/06/23 06:12:30;;;;;;;10.70;8.85;;;;;;;19.11;100.00;102251.50;4984198;28;20548;-77
2023/06/23 06:14:57;;;;;;;10.45;8.70;;;;;;;19.15;100.00;102238.31;4989781;28;20036;-77
2023/06/23 06:17:23;;;;;;;15.82;9.10;;;;;;;19.27;100.00;102253.03;4989454;28;20113;-77
2023/06/23 06:19:49;;;;;;;13.77;8.77;;;;;;;19.42;100.00;102252.84;4988925;28;20054;-77
2023/06/23 06:22:15;;;;;;;16.80;9.65;;;;;;;19.55;100.00;102258.34;4986550;28;20022;-77
2023/06/23 06:24:42;;;;;;;12.27;8.95;;;;;;;19.78;100.00;102255.28;5004304;28;20057;-77
2023/06/23 06:27:08;;;;;;;11.50;9.47;;;;;;;20.02;100.00;102247.50;5006412;28;20026;-76
2023/06/23 06:29:35;;;;;;;10.25;8.85;;;;;;;20.31;100.00;102252.50;5006362;28;20340;-75
2023/06/23 06:32:03;;;;;;;11.95;7.63;;;;;;;20.56;100.00;102240.91;4983116;28;20068;-78
2023/06/23 06:34:30;;;;;;;10.00;7.43;;;;;;;20.77;100.00;102240.66;4984194;28;20114;-77
2023/06/23 06:36:55;;;;;;;9.75;7.43;;;;;;;21.01;100.00;102246.44;4999150;28;20376;-77
2023/06/23 06:39:21;;;;;;;9.80;7.57;;;;;;;21.22;100.00;102242.53;4999281;28;20040;-78
2023/06/23 06:41:47;;;;;;;11.07;8.25;;;;;;;21.39;100.00;102245.66;5017679;28;20084;-77
2023/06/23 06:44:12;;;;;;;9.20;7.20;;;;;;;21.41;100.00;102241.63;5017985;28;20030;-77
2023/06/23 06:46:39;;;;;;;9.88;6.88;;;;;;;21.58;100.00;102247.41;5015622;28;20415;-77
2023/06/23 06:49:04;;;;;;;11.75;7.60;;;;;;;21.72;100.00;102255.53;4991114;28;20090;-77
2023/06/23 06:51:31;;;;;;;9.32;7.28;;;;;;;21.82;100.00;102248.50;4997320;28;20085;-78
2023/06/23 06:53:56;;;;;;;10.55;8.02;;;;;;;21.89;100.00;102253.94;5007417;28;20057;-78
2023/06/23 06:56:22;;;;;;;11.80;7.88;;;;;;;21.96;100.00;102259.34;5016909;28;20108;-77
2023/06/23 06:58:48;;;;;;;13.85;7.47;;;;;;;22.19;100.00;102261.53;5019827;28;20030;-76
2023/06/23 07:01:14;;;;;;;8.15;6.40;;;;;;;22.51;100.00;102257.63;5008667;28;20018;-77
2023/06/23 07:03:41;;;;;;;9.88;6.10;;;;;;;22.95;100.00;102258.34;5020534;28;20043;-77
2023/06/23 07:06:07;;;;;;;10.82;6.22;;;;;;;23.39;100.00;102256.34;5007877;28;20413;-77
2023/06/23 07:08:32;;;;;;;8.50;5.80;;;;;;;24.03;100.00;102259.38;5024354;28;20053;-79
2023/06/23 07:10:58;;;;;;;6.40;4.75;;;;;;;24.73;100.00;102253.03;5020311;28;20064;-78
2023/06/23 07:13:23;;;;;;;6.78;4.45;;;;;;;25.50;100.00;102257.31;5020155;28;20026;-77
2023/06/23 07:15:48;;;;;;;6.65;4.95;;;;;;;26.34;100.00;102270.31;5016419;28;20053;-79
2023/06/23 07:18:14;;;;;;;7.47;5.00;;;;;;;26.76;100.00;102275.34;5005420;28;20044;-78
2023/06/23 07:20:40;;;;;;;8.23;4.90;;;;;;;27.39;98.93;102278.63;5021048;28;20025;-78
2023/06/23 07:23:05;;;;;;;5.82;5.03;;;;;;;27.94;96.77;102282.22;5013972;28;20022;-78
2023/06/23 07:25:31;;;;;;;6.93;4.63;;;;;;;28.18;95.24;102283.50;5006359;28;20107;-78
2023/06/23 07:27:56;;;;;;;5.70;5.10;;;;;;;28.36;93.65;102287.78;5004460;28;20030;-77
2023/06/23 07:30:21;;;;;;;12.75;5.72;;;;;;;28.14;93.73;102292.59;5019182;28;20030;-77
2023/06/23 07:32:47;;;;;;;10.27;6.65;;;;;;;27.54;96.55;102298.13;5000722;28;20033;-77
2023/06/23 07:35:13;;;;;;;11.52;6.05;;;;;;;27.76;98.51;102294.47;5011623;28;20030;-78
2023/06/23 07:37:38;;;;;;;9.05;6.00;;;;;;;27.91;95.87;102304.84;5014652;28;20092;-78
2023/06/23 07:40:05;;;;;;;7.50;6.43;;;;;;;28.31;94.86;102311.84;5001389;28;20026;-78
2023/06/23 07:42:31;;;;;;;8.23;6.47;;;;;;;28.88;91.14;102311.06;5016289;28;20516;-78
2023/06/23 07:44:56;;;;;;;8.17;6.33;;;;;;;28.41;91.88;102307.19;5017099;28;20046;-79
2023/06/23 07:47:22;;;;;;;7.70;6.30;;;;;;;28.44;91.49;102306.69;5013249;28;20453;-79
2023/06/23 07:49:47;;;;;;;6.95;6.28;;;;;;;28.10;91.46;102314.44;5017235;28;20030;-78
2023/06/23 07:52:12;;;;;;;7.07;6.40;;;;;;;27.21;94.63;102312.97;5012728;28;20037;-78
2023/06/23 07:54:39;;;;;;;7.32;5.78;;;;;;;26.99;97.20;102301.03;5013952;28;20114;-77
2023/06/23 07:57:08;;;;;;;7.40;6.03;;;;;;;27.62;96.44;102305.13;5006933;28;20018;-77
2023/06/23 07:59:33;;;;;;;7.18;5.65;;;;;;;28.02;94.04;102303.88;5015041;28;20025;-78
2023/06/23 08:01:58;;;;;;;6.65;5.70;;;;;;;28.87;90.43;102307.47;5004992;28;20041;-77
2023/06/23 08:04:24;;;;;;;7.50;6.32;;;;;;;29.19;85.31;102311.22;5010864;28;20037;-77
2023/06/23 08:06:49;;;;;;;5.85;5.03;;;;;;;29.51;85.87;102309.09;5010562;28;20072;-78
2023/06/23 08:09:15;;;;;;;6.93;5.22;;;;;;;29.74;83.63;102307.78;5015009;28;20026;-77
2023/06/23 08:11:41;;;;;;;5.07;3.90;;;;;;;30.12;82.42;102307.50;5012255;28;20539;-78
2023/06/23 08:14:06;;;;;;;6.63;5.07;;;;;;;29.68;83.74;102322.75;5015904;28;20022;-78
2023/06/23 08:16:32;;;;;;;8.70;5.80;;;;;;;29.10;84.10;102320.09;5008704;28;20068;-78
2023/06/23 08:18:57;;;;;;;6.57;5.63;;;;;;;29.27;84.69;102319.03;5014087;28;20018;-77
2023/06/23 08:21:22;;;;;;;6.83;5.70;;;;;;;29.71;82.31;102313.06;5009849;28;20018;-77
2023/06/23 08:23:48;;;;;;;8.83;5.57;;;;;;;29.65;83.01;102320.53;5012144;28;20039;-78
2023/06/23 08:26:14;;;;;;;7.23;5.60;;;;;;;29.60;83.57;102316.91;5007870;28;20022;-78
2023/06/23 08:28:40;;;;;;;7.13;5.60;;;;;;;29.84;83.88;102312.50;5006896;28;20036;-79
2023/06/23 08:31:05;;;;;;;5.77;5.20;;;;;;;30.34;81.44;102307.25;5008332;28;20025;-77
2023/06/23 08:33:34;;;;;;;7.50;5.60;;;;;;;30.45;79.17;102316.38;5005647;28;20018;-78
2023/06/23 08:36:01;;;;;;;6.20;5.57;;;;;;;30.85;78.01;102315.47;5012507;28;20049;-77
2023/06/23 08:38:26;;;;;;;7.20;5.63;;;;;;;30.34;77.28;102310.03;4983525;28;20022;-77
2023/06/23 08:40:52;;;;;;;7.63;5.37;;;;;;;30.44;79.11;102312.78;5006528;28;20084;-78
2023/06/23 08:43:25;;;;;;;10.45;5.25;;;;;;;31.07;78.37;102317.88;5015535;28;20030;-77
2023/06/23 08:45:56;;;;;;;8.15;4.78;;;;;;;32.35;70.74;102308.63;5005879;28;20113;-77
2023/06/23 08:48:31;;;;;;;6.45;4.72;;;;;;;33.29;63.86;102313.69;5004800;28;20018;-76
2023/06/23 08:51:01;;;;;;;6.20;4.88;;;;;;;32.62;67.57;102318.41;5006966;28;20080;-77
2023/06/23 08:53:27;;;;;;;7.57;4.78;;;;;;;31.75;66.96;102311.63;4989804;28;20033;-77
2023/06/23 08:55:53;;;;;;;6.13;4.27;;;;;;;31.80;67.58;102313.56;4989778;28;20069;-77
2023/06/23 08:58:24;;;;;;;6.45;4.63;;;;;;;31.35;68.32;102309.94;5008971;28;20430;-77
2023/06/23 09:00:51;;;;;;;5.65;4.75;;;;;;;31.36;70.79;102319.94;5005247;28;20590;-77
2023/06/23 09:03:17;;;;;;;6.35;4.63;;;;;;;31.51;69.55;102322.66;4994993;28;20064;-77
2023/06/23 09:05:42;;;;;;;7.20;4.45;;;;;;;31.23;68.30;102330.59;5013405;28;20299;-77
2023/06/23 09:08:10;;;;;;;5.95;4.60;;;;;;;31.23;67.69;102335.34;5010150;28;20092;-77
2023/06/23 09:10:35;;;;;;;5.13;3.83;;;;;;;30.76;68.80;102328.25;4992590;28;20029;-77
2023/06/23 09:13:36;;;;;;;5.73;3.53;;;;;;;31.42;64.50;102322.44;5013919;28;20040;-77
2023/06/23 09:16:02;;;;;;;9.75;3.67;;;;;;;31.66;65.41;102328.13;4955277;28;20038;-77
2023/06/23 09:18:30;;;;;;;9.83;3.93;;;;;;;32.16;64.34;102333.63;5015380;28;20382;-77
2023/06/23 09:20:56;;;;;;;6.55;4.60;;;;;;;31.91;63.63;102340.19;5018330;28;20029;-77
2023/06/23 09:23:22;;;;;;;5.30;3.78;;;;;;;32.18;62.09;102336.09;4995069;28;20026;-77
2023/06/23 09:25:50;;;;;;;8.50;3.55;;;;;;;32.12;60.21;102332.53;5015404;28;20034;-77
2023/06/23 09:28:30;;;;;;;5.55;3.17;;;;;;;32.53;61.35;102338.56;5014054;28;20046;-77
2023/06/23 09:31:00;;;;;;;7.30;3.65;;;;;;;32.94;57.68;102340.91;5012324;28;20040;-77
2023/06/23 09:33:26;;;;;;;4.88;3.35;;;;;;;34.15;52.85;102338.63;4994232;28;20033;-76
2023/06/23 09:35:53;;;;;;;5.78;3.67;;;;;;;33.35;56.35;102343.16;5018207;28;20053;-78
2023/06/23 09:38:28;;;;;;;7.93;4.60;;;;;;;33.62;58.41;102348.09;5033306;28;20361;-77
2023/06/23 09:41:14;;;;;;;5.97;4.70;;;;;;;32.82;58.31;102342.44;5020673;28;20025;-77
2023/06/23 09:43:52;;;;;;;;;;;;;;;32.38;59.68;102335.91;4993951;28;20388;-78
2023/06/23 09:46:20;;;;;;;24.15;5.75;;;;;;;32.58;57.82;102348.84;5011371;28;19913;-78
2023/06/23 09:48:47;;;;;;;27.52;8.18;;;;;;;33.21;54.67;102336.69;5013751;28;20036;-78
2023/06/23 09:51:13;;;;;;;14.80;5.50;;;;;;;32.93;54.38;102347.59;5012652;28;20456;-78
2023/06/23 09:53:40;;;;;;;9.95;3.97;;;;;;;32.54;55.06;102354.16;5002615;28;20084;-78
2023/06/23 09:56:07;;;;;;;6.32;4.25;;;;;;;32.54;54.51;102351.38;5008385;28;20042;-78
2023/06/23 09:58:40;;;;;;;5.30;4.05;;;;;;;33.16;50.90;102334.78;5010453;28;20034;-78
2023/06/23 10:01:10;;;;;;;6.20;3.63;;;;;;;33.15;50.95;102343.44;5017285;28;20438;-77
2023/06/23 10:03:43;;;;;;;4.72;3.67;;;;;;;32.90;50.59;102331.47;5034400;28;20013;-78
2023/06/23 10:06:30;;;;;;;5.95;3.78;;;;;;;33.23;47.59;102340.00;5015060;28;20030;-78
2023/06/23 10:08:57;;;;;;;10.27;4.05;;;;;;;33.08;50.40;102354.97;4995693;28;20449;-78
2023/06/23 10:11:33;;;;;;;9.93;3.95;;;;;;;33.29;51.55;102349.13;5014393;28;20026;-78
2023/06/23 10:14:02;;;;;;;13.23;6.13;;;;;;;33.64;44.86;102339.44;5007589;28;20548;-78
2023/06/23 10:16:28;;;;;;;12.93;3.55;;;;;;;33.45;45.62;102351.41;5003302;28;20026;-78
2023/06/23 10:18:53;;;;;;;;;;;;;;;33.14;47.01;102350.16;5012861;28;20030;-77
2023/06/23 10:21:20;;;;;;;7.63;4.20;;;;;;;32.81;46.70;102355.56;5012519;28;19928;-78
2023/06/23 10:23:47;;;;;;;10.93;4.05;;;;;;;32.93;47.84;102352.34;4984179;28;20026;-76
2023/06/23 10:26:13;;;;;;;6.15;3.90;;;;;;;32.58;47.77;102354.41;5006617;28;20044;-78
2023/06/23 10:28:43;;;;;;;14.63;4.03;;;;;;;32.40;48.55;102347.59;4993107;28;20496;-76
2023/06/23 10:31:08;;;;;;;7.78;4.57;;;;;;;32.34;47.53;102346.81;4992333;28;20087;-76
2023/06/23 10:33:36;;;;;;;7.57;3.90;;;;;;;32.75;48.06;102348.38;5008895;28;20341;-77
2023/06/23 10:36:06;;;;;;;6.25;4.05;;;;;;;33.32;45.32;102360.53;5010076;28;20081;-77
2023/06/23 10:38:32;;;;;;;7.47;3.50;;;;;;;33.42;44.29;102360.38;4992909;28;20037;-76
2023/06/23 10:41:00;;;;;;;8.90;3.50;;;;;;;33.37;45.15;102363.25;4989009;28;20467;-76
2023/06/23 10:43:28;;;;;;;4.82;3.45;;;;;;;33.60;44.89;102366.31;4992604;28;20033;-76
2023/06/23 10:45:54;;;;;;;5.25;3.60;;;;;;;33.56;44.29;102370.81;5002843;28;20137;-77
2023/06/23 10:48:19;;;;;;;4.78;3.08;;;;;;;33.67;43.62;102375.13;5010705;28;20034;-79
2023/06/23 10:50:46;;;;;;;6.90;3.63;;;;;;;33.62;41.82;102375.19;4992899;28;20050;-78
2023/06/23 10:53:15;;;;;;;10.88;3.45;;;;;;;33.17;42.44;102374.66;4992594;28;20520;-78
2023/06/23 10:55:43;;;;;;;4.25;3.10;;;;;;;32.87;42.79;102373.88;4992115;28;20192;-77
2023/06/23 10:58:09;;;;;;;5.25;2.92;;;;;;;32.72;40.67;102374.06;5008796;28;20042;-77
2023/06/23 11:00:35;;;;;;;4.68;3.13;;;;;;;32.45;41.51;102372.63;5009356;28;20034;-77
2023/06/23 11:03:01;;;;;;;3.30;2.80;;;;;;;32.33;40.64;102355.47;5009886;28;20029;-77
2023/06/23 11:05:26;;;;;;;2.73;2.50;;;;;;;32.17;41.47;102362.28;5010079;28;20033;-76
2023/06/23 11:07:59;;;;;;;4.73;3.53;;;;;;;31.63;43.16;102355.72;5009655;28;20339;-77
2023/06/23 11:10:45;;;;;;;5.55;3.20;;;;;;;31.74;45.95;102365.66;5008440;28;20026;-77
2023/06/23 11:13:14;;;;;;;3.75;3.15;;;;;;;32.10;43.88;102369.03;5009758;28;20499;-77
2023/06/23 11:15:40;;;;;;;3.50;3.17;;;;;;;32.20;43.96;102368.09;5010035;28;20397;-77